x

San Francisco - 18nm West Of San Francisco, Ca (46026) Wave Buoy

9:50am - Thu 2nd Jul 2015 All times are PDT. -7 hours from GMT.

  • Sig Wave height 3.3ft
  • Swell Direction
  • Peak Period 9s
  • Average Period 7s
  • Wind
    4mph, 9mph gusts
  • Sea Temp 58°f
  • Air Temp 57°f
  • Sea Pressure 1015.8mb
  • San Francisco - 18nm West Of San Francisco, Ca
  • San Francisco - 18nm West Of San Francisco, Ca

More Historic Weather Station data

Upgrade to MSW Pro to gain access to the past 30 days of data for over 8000 Wavebouys and Weather Stations around the globe.

Join Pro

Comparision Forecast

View Surf forecast
   
Thu 07/02 9:50am 3.5ft 9s 7s 4 9 mph 1015.8mb 58f 57f
8:50am 3.5ft 10s 7s 4
mph
1015.8mb 58f 56f
7:50am 3.5ft 9s 7s 4 7 mph 1015mb 58f 56f
6:50am 4ft 9s 7s 4
mph
1014.6mb 58f 56f
5:50am 3.5ft 9s 7s 2 7 mph 1014.4mb 58f 56f
4:50am 3.5ft 9s 7s 2 4 mph 1014.1mb 58f 56f
3:50am 3.5ft 9s 7s  -  2 mph 1014mb 58f 56f
2:50am 3.5ft 8s 7s 4 7 mph 1014mb 58f 56f
1:50am 3.5ft 9s 7s 2
mph
1014.3mb 58f 56f
12:50am 3.5ft 9s 7s 7 9 mph 1013.2mb 58f 56f
Wed 07/01 11:50pm 3.5ft 9s 6s 4 7 mph 1013.7mb 58f 56f
10:50pm 3.5ft 8s 6s 7
mph
1013.9mb 58f 56f
9:50pm 3.5ft 8s 6s 9 11 mph 1013.5mb 58f 57f
8:50pm 3.5ft 8s 6s 4 7 mph 1013.2mb 58f 57f
7:50pm 3.5ft 8s 6s 16 20 mph 1011.4mb 59f 57f
6:50pm 3.5ft 9s 6s 13 18 mph 1012.1mb 59f 57f
5:50pm 3.5ft 9s 6s 7
mph
1014.1mb 59f 57f
4:50pm 4ft 9s 7s 4 7 mph 1014.2mb 59f 57f
3:50pm 4ft 8s 7s  -  2 mph 1014.6mb 59f 57f
2:50pm 4ft 9s 6s 7 9 mph 1014.6mb 58f 57f
1:50pm 3.5ft 8s 6s 7 9 mph 1015mb 58f 56f
12:50pm 4ft 9s 6s 9 11 mph 1014.9mb 58f 56f
11:50am 3.5ft 8s 6s 9 11 mph 1014.9mb 58f 56f
10:50am 3.5ft 8s 6s 11 13 mph 1014.4mb 58f 55f
9:50am 4ft 8s 6s 9 11 mph 1013.4mb 58f 54f
8:50am 3.5ft 8s 6s 7 9 mph 1012.6mb 58f 54f
7:50am 4.5ft 8s 6s 4
mph
1012mb 58f 54f
6:50am 4.5ft 8s 6s  -  2 mph 1011.8mb 58f 54f
5:50am 4.5ft 8s 6s 4 7 mph 1011mb 58f 54f
4:50am 4.5ft 9s 6s 4 7 mph 1011mb 58f 54f
3:50am 4.5ft 8s 6s 4 7 mph 1010.8mb 58f 55f
2:50am 3.5ft 8s 6s 4 7 mph 1011.6mb 58f 54f
1:50am 4.5ft 8s 6s 4
mph
1011.9mb 58f 55f
12:50am 4.5ft 8s 6s 4 7 mph 1012.5mb 58f 55f
Tue 06/30 11:50pm 4.5ft 8s 6s 2 4 mph 1012.3mb 58f 54f
10:50pm 4.5ft 8s 6s 9 11 mph 1012.2mb 57f 55f
9:50pm 4.5ft 8s 6s 9 11 mph 1012mb 58f 55f
8:50pm 4.5ft 8s 5s 11 13 mph 1011.4mb 58f 55f
7:50pm 4.5ft 7s 5s 11 13 mph 1011.6mb 58f 55f
6:50pm 4.5ft 8s 5s 16 20 mph 1010.7mb 58f 55f
5:50pm 4.5ft 8s 5s 16 18 mph 1011.2mb 58f 55f
4:50pm 4.5ft 8s 5s 13 18 mph 1011.7mb 58f 55f
3:50pm 4.5ft 8s 6s 13 16 mph 1011.9mb 58f 55f
2:50pm 4.5ft 8s 5s 16 18 mph 1012.1mb 58f 55f
1:50pm 4.5ft 8s 6s 13 16 mph 1012.7mb 58f 55f
12:50pm 4.5ft 7s 6s 11 13 mph 1013.2mb 58f 54f
11:50am 4.5ft 7s 6s 11 13 mph 1013.5mb 57f 54f
10:50am 4.5ft 8s 6s 11 13 mph 1013.5mb 57f 54f
9:50am 4.5ft 7s 6s 13 16 mph 1013.5mb 57f 54f
8:50am 4.5ft 6s 6s 9 11 mph 1013.8mb 57f 53f
7:50am 4.5ft 6s 5s 11 16 mph 1013.5mb 57f 53f
6:50am 4.5ft 7s 5s 16 18 mph 1013.5mb 57f 53f
5:50am 4.5ft 7s 5s 13 18 mph 1013.4mb 57f 54f
4:50am 5ft 6s 5s 16 18 mph 1013.4mb 57f 54f
3:50am 6ft 6s 5s 18 22 mph 1013.5mb 57f 55f
2:50am 5.5ft 7s 5s 18 22 mph 1013.6mb 56f 55f
1:50am 5ft 7s 5s 20 25 mph 1013.6mb 56f 55f
12:50am 5.5ft 7s 5s 22 27 mph 1013.5mb 56f 56f
Mon 06/29 11:50pm 5ft 7s 5s 18 22 mph 1014.1mb 56f 57f
10:50pm 5ft 6s 5s 18 20 mph 1014.3mb 56f 57f
9:50pm 4.5ft 6s 5s 18 20 mph 1014.3mb 56f 58f
8:50pm 5ft 5s 5s 20 22 mph 1013.7mb 56f 58f
7:50pm 4.5ft 5s 4s 22 27 mph 1013.9mb 56f 58f
6:50pm 4.5ft 4s 4s 25 31 mph 1013.8mb 56f 57f
5:50pm 4ft 15s 4s 22 29 mph 1014.3mb 56f 58f
4:50pm 3.5ft 9s 5s 22 27 mph 1014.6mb 57f 58f
3:50pm 3.5ft 9s 5s 20 25 mph 1015.2mb 57f 58f
2:50pm 3.5ft 15s 5s 18 20 mph 1016.2mb 57f 58f
1:50pm 3.5ft 9s 5s 18 22 mph 1016.4mb 57f 57f
12:50pm 3.5ft 10s 5s 20 25 mph 1016.7mb 57f 57f
11:50am 3ft 15s 6s 16 18 mph 1017.3mb 57f 58f
10:50am 3ft 10s 7s 13 16 mph 1017.4mb 56f 57f
9:50am 3.5ft 15s 7s 7 9 mph 1017.5mb 56f 56f
8:50am 3.5ft 15s 6s 9 11 mph 1017.1mb 56f 56f
7:50am 3ft 15s 6s 16 20 mph 1016.6mb 56f 57f
6:50am 3ft 15s 6s 13 18 mph 1016.8mb 56f 57f
5:50am 3ft 16s 6s 11 20 mph 1016.5mb 57f 56f
4:50am 2.5ft 15s 6s 11 16 mph 1016.2mb 57f 57f
3:50am 3ft 15s 7s 11 13 mph 1016.3mb 56f 57f
2:50am 2.5ft 12s 6s 9 11 mph 1016.8mb 56f 57f
1:50am 3ft 16s 7s 11 13 mph 1016.8mb 56f 57f
12:50am 3ft 16s 9s 11 16 mph 1016.9mb 57f 57f
Sun 06/28 11:50pm 3ft 16s 9s 9 13 mph 1016.9mb 57f 58f
10:50pm 3ft 16s 8s 7
mph
1017mb 57f 57f
9:50pm 3ft 16s 8s 7 9 mph 1016.6mb 58f 58f
8:50pm 3ft 16s 8s 7
mph
1016.3mb 58f 59f
7:50pm 3ft 16s 8s 2 4 mph 1016.1mb 59f 59f
6:50pm 3ft 16s 8s 4
mph
1015.8mb 59f 59f